Terminal Aerodrome Forecast
Issued by NWS

Home | Current Version | Previous Version | Text Only | Print | Product List | Glossary On
Versions: 1 2 3 4 5 6 7 8 9 10 11 12 13
000
FTUS45 KVEF 301700
TAFDAG
TAF
KDAG 301725Z 3018/3118 VRB06KT P6SM VCSH FEW030 OVC050
      TEMPO 3022/3102 6SM -RA FEW015 BKN030
     FM310600 27007KT P6SM FEW030 OVC050
     FM311700 31008KT P6SM SCT050 BKN080=

USA.gov is the U.S. government's official web portal to all federal, state and local government web resources and services.